sensor_id;sensor_type;location;lat;lon;timestamp;P1;durP1;ratioP1;P2;durP2;ratioP2
11384;SDS011;5747;56.748;13.882;2023-07-02T08:31:36;7.53;;;2.33;;
11384;SDS011;5747;56.748;13.882;2023-07-02T08:34:05;7.83;;;2.70;;
11384;SDS011;5747;56.748;13.882;2023-07-02T08:36:33;7.03;;;2.13;;
11384;SDS011;5747;56.748;13.882;2023-07-02T08:39:45;5.07;;;2.07;;
11384;SDS011;5747;56.748;13.882;2023-07-02T08:47:36;6.82;;;2.80;;
11384;SDS011;5747;56.748;13.882;2023-07-02T08:50:05;12.30;;;2.80;;
11384;SDS011;5747;56.748;13.882;2023-07-02T08:52:34;9.77;;;3.37;;
11384;SDS011;5747;56.748;13.882;2023-07-02T08:55:02;10.87;;;3.00;;
11384;SDS011;5747;56.748;13.882;2023-07-02T08:57:31;4.13;;;2.70;;
11384;SDS011;5747;56.748;13.882;2023-07-02T09:00:00;7.60;;;2.50;;
11384;SDS011;5747;56.748;13.882;2023-07-02T09:02:34;7.47;;;2.77;;
11384;SDS011;5747;56.748;13.882;2023-07-02T09:05:05;12.87;;;2.60;;
11384;SDS011;5747;56.748;13.882;2023-07-02T09:07:42;5.53;;;2.80;;
11384;SDS011;5747;56.748;13.882;2023-07-02T09:10:12;5.20;;;2.50;;
11384;SDS011;5747;56.748;13.882;2023-07-02T09:13:02;10.80;;;2.70;;
11384;SDS011;5747;56.748;13.882;2023-07-02T09:15:34;5.73;;;2.53;;
11384;SDS011;5747;56.748;13.882;2023-07-02T09:18:14;11.37;;;2.80;;
11384;SDS011;5747;56.748;13.882;2023-07-02T09:20:44;9.00;;;3.20;;
11384;SDS011;5747;56.748;13.882;2023-07-02T09:23:13;8.53;;;2.93;;
11384;SDS011;5747;56.748;13.882;2023-07-02T09:25:41;10.00;;;3.07;;
11384;SDS011;5747;56.748;13.882;2023-07-02T09:28:17;11.83;;;2.93;;
11384;SDS011;5747;56.748;13.882;2023-07-02T09:30:50;7.00;;;2.80;;
11384;SDS011;5747;56.748;13.882;2023-07-02T09:33:19;7.00;;;2.70;;
11384;SDS011;5747;56.748;13.882;2023-07-02T09:35:49;8.13;;;2.50;;
11384;SDS011;5747;56.748;13.882;2023-07-02T09:38:18;4.83;;;2.53;;
11384;SDS011;5747;56.748;13.882;2023-07-02T09:40:48;5.63;;;2.30;;
11384;SDS011;5747;56.748;13.882;2023-07-02T09:43:19;4.23;;;2.47;;
11384;SDS011;5747;56.748;13.882;2023-07-02T09:45:49;8.17;;;2.40;;
11384;SDS011;5747;56.748;13.882;2023-07-02T09:48:18;7.13;;;2.50;;
11384;SDS011;5747;56.748;13.882;2023-07-02T09:50:51;7.83;;;2.73;;
11384;SDS011;5747;56.748;13.882;2023-07-02T09:53:20;5.43;;;2.70;;
11384;SDS011;5747;56.748;13.882;2023-07-02T09:55:48;8.60;;;3.07;;
11384;SDS011;5747;56.748;13.882;2023-07-02T09:58:16;8.90;;;2.77;;
11384;SDS011;5747;56.748;13.882;2023-07-02T10:00:45;10.73;;;3.13;;
11384;SDS011;5747;56.748;13.882;2023-07-02T10:03:14;6.37;;;3.13;;
11384;SDS011;5747;56.748;13.882;2023-07-02T10:05:42;5.13;;;2.60;;
11384;SDS011;5747;56.748;13.882;2023-07-02T10:08:15;9.80;;;2.90;;
11384;SDS011;5747;56.748;13.882;2023-07-02T10:10:45;12.20;;;3.07;;
11384;SDS011;5747;56.748;13.882;2023-07-02T10:13:13;4.60;;;3.07;;
11384;SDS011;5747;56.748;13.882;2023-07-02T10:15:41;10.60;;;3.20;;
11384;SDS011;5747;56.748;13.882;2023-07-02T10:18:10;7.83;;;3.07;;
11384;SDS011;5747;56.748;13.882;2023-07-02T10:20:39;8.37;;;3.03;;
11384;SDS011;5747;56.748;13.882;2023-07-02T10:23:08;11.73;;;3.60;;
11384;SDS011;5747;56.748;13.882;2023-07-02T10:25:38;7.73;;;3.27;;
11384;SDS011;5747;56.748;13.882;2023-07-02T10:28:16;10.50;;;3.20;;
11384;SDS011;5747;56.748;13.882;2023-07-02T10:30:48;6.63;;;3.27;;
11384;SDS011;5747;56.748;13.882;2023-07-02T10:33:19;8.67;;;3.63;;
11384;SDS011;5747;56.748;13.882;2023-07-02T10:35:48;6.97;;;2.90;;
11384;SDS011;5747;56.748;13.882;2023-07-02T10:38:18;8.10;;;3.00;;
11384;SDS011;5747;56.748;13.882;2023-07-02T10:40:53;4.67;;;2.93;;
11384;SDS011;5747;56.748;13.882;2023-07-02T10:43:25;8.37;;;2.90;;
11384;SDS011;5747;56.748;13.882;2023-07-02T10:45:56;7.07;;;2.80;;
11384;SDS011;5747;56.748;13.882;2023-07-02T10:48:26;7.03;;;3.20;;
11384;SDS011;5747;56.748;13.882;2023-07-02T10:50:55;8.00;;;3.33;;
11384;SDS011;5747;56.748;13.882;2023-07-02T10:53:23;5.87;;;3.40;;
11384;SDS011;5747;56.748;13.882;2023-07-02T10:55:54;9.70;;;3.47;;
11384;SDS011;5747;56.748;13.882;2023-07-02T10:58:24;7.73;;;3.50;;
11384;SDS011;5747;56.748;13.882;2023-07-02T11:00:53;8.27;;;3.10;;
11384;SDS011;5747;56.748;13.882;2023-07-02T11:03:21;11.37;;;3.40;;
11384;SDS011;5747;56.748;13.882;2023-07-02T11:05:51;9.77;;;3.63;;
11384;SDS011;5747;56.748;13.882;2023-07-02T11:08:21;7.73;;;2.60;;
11384;SDS011;5747;56.748;13.882;2023-07-02T11:10:51;6.90;;;3.20;;
11384;SDS011;5747;56.748;13.882;2023-07-02T11:13:33;6.90;;;3.10;;
11384;SDS011;5747;56.748;13.882;2023-07-02T11:16:02;6.27;;;2.73;;
11384;SDS011;5747;56.748;13.882;2023-07-02T11:18:30;7.10;;;3.03;;
11384;SDS011;5747;56.748;13.882;2023-07-02T11:21:08;5.47;;;3.10;;
11384;SDS011;5747;56.748;13.882;2023-07-02T11:23:37;5.60;;;2.67;;
11384;SDS011;5747;56.748;13.882;2023-07-02T11:26:07;7.03;;;3.23;;
11384;SDS011;5747;56.748;13.882;2023-07-02T11:28:47;8.87;;;3.03;;
11384;SDS011;5747;56.748;13.882;2023-07-02T11:31:26;8.00;;;3.20;;
11384;SDS011;5747;56.748;13.882;2023-07-02T11:33:56;6.77;;;2.70;;
11384;SDS011;5747;56.748;13.882;2023-07-02T11:36:25;8.10;;;2.67;;
11384;SDS011;5747;56.748;13.882;2023-07-02T11:38:54;8.90;;;2.90;;
11384;SDS011;5747;56.748;13.882;2023-07-02T11:41:24;5.67;;;2.53;;
11384;SDS011;5747;56.748;13.882;2023-07-02T11:43:52;8.03;;;2.90;;
11384;SDS011;5747;56.748;13.882;2023-07-02T11:46:20;5.90;;;2.90;;
11384;SDS011;5747;56.748;13.882;2023-07-02T11:48:49;5.27;;;2.90;;
11384;SDS011;5747;56.748;13.882;2023-07-02T11:51:17;10.40;;;3.13;;
11384;SDS011;5747;56.748;13.882;2023-07-02T11:53:45;7.57;;;3.03;;
11384;SDS011;5747;56.748;13.882;2023-07-02T11:56:13;7.00;;;2.60;;
11384;SDS011;5747;56.748;13.882;2023-07-02T11:58:43;8.87;;;3.13;;
11384;SDS011;5747;56.748;13.882;2023-07-02T12:01:11;5.73;;;2.77;;
11384;SDS011;5747;56.748;13.882;2023-07-02T12:03:39;4.63;;;2.77;;
11384;SDS011;5747;56.748;13.882;2023-07-02T12:06:07;8.40;;;2.87;;
11384;SDS011;5747;56.748;13.882;2023-07-02T12:08:35;4.17;;;2.70;;
11384;SDS011;5747;56.748;13.882;2023-07-02T12:11:04;4.67;;;2.93;;
11384;SDS011;5747;56.748;13.882;2023-07-02T12:13:32;4.60;;;2.80;;
11384;SDS011;5747;56.748;13.882;2023-07-02T12:16:02;3.13;;;2.60;;
11384;SDS011;5747;56.748;13.882;2023-07-02T12:18:30;5.20;;;2.63;;
11384;SDS011;5747;56.748;13.882;2023-07-02T12:20:58;5.47;;;2.60;;
11384;SDS011;5747;56.748;13.882;2023-07-02T12:23:27;3.43;;;2.50;;
11384;SDS011;5747;56.748;13.882;2023-07-02T12:25:55;5.33;;;2.80;;
11384;SDS011;5747;56.748;13.882;2023-07-02T12:28:23;8.47;;;3.10;;
11384;SDS011;5747;56.748;13.882;2023-07-02T12:30:51;6.27;;;3.50;;
11384;SDS011;5747;56.748;13.882;2023-07-02T12:33:20;5.80;;;3.20;;
11384;SDS011;5747;56.748;13.882;2023-07-02T12:35:49;6.07;;;3.47;;
11384;SDS011;5747;56.748;13.882;2023-07-02T12:38:17;5.70;;;3.40;;
11384;SDS011;5747;56.748;13.882;2023-07-02T12:40:45;5.67;;;3.13;;
11384;SDS011;5747;56.748;13.882;2023-07-02T12:43:15;9.40;;;3.57;;
11384;SDS011;5747;56.748;13.882;2023-07-02T12:45:43;6.40;;;3.20;;
11384;SDS011;5747;56.748;13.882;2023-07-02T12:48:12;5.97;;;3.10;;
11384;SDS011;5747;56.748;13.882;2023-07-02T12:50:41;10.43;;;3.70;;
11384;SDS011;5747;56.748;13.882;2023-07-02T12:53:09;6.20;;;3.03;;
11384;SDS011;5747;56.748;13.882;2023-07-02T12:55:37;15.63;;;4.37;;
11384;SDS011;5747;56.748;13.882;2023-07-02T12:58:06;8.60;;;3.30;;
11384;SDS011;5747;56.748;13.882;2023-07-02T13:00:34;9.63;;;3.03;;
11384;SDS011;5747;56.748;13.882;2023-07-02T13:03:03;5.17;;;2.93;;
11384;SDS011;5747;56.748;13.882;2023-07-02T13:05:31;8.13;;;2.83;;
11384;SDS011;5747;56.748;13.882;2023-07-02T13:08:01;6.80;;;2.80;;
11384;SDS011;5747;56.748;13.882;2023-07-02T13:10:30;6.43;;;3.30;;
11384;SDS011;5747;56.748;13.882;2023-07-02T13:13:02;12.57;;;3.53;;
11384;SDS011;5747;56.748;13.882;2023-07-02T13:15:47;10.70;;;3.67;;
11384;SDS011;5747;56.748;13.882;2023-07-02T13:18:16;10.77;;;3.40;;
11384;SDS011;5747;56.748;13.882;2023-07-02T13:20:44;6.40;;;3.13;;
11384;SDS011;5747;56.748;13.882;2023-07-02T13:23:14;8.67;;;3.20;;
11384;SDS011;5747;56.748;13.882;2023-07-02T13:25:42;7.40;;;2.50;;
11384;SDS011;5747;56.748;13.882;2023-07-02T13:28:11;12.67;;;2.53;;
11384;SDS011;5747;56.748;13.882;2023-07-02T13:30:40;7.33;;;2.47;;
11384;SDS011;5747;56.748;13.882;2023-07-02T13:33:10;5.53;;;3.00;;
11384;SDS011;5747;56.748;13.882;2023-07-02T13:35:38;6.17;;;2.50;;
11384;SDS011;5747;56.748;13.882;2023-07-02T13:38:06;4.43;;;2.27;;
11384;SDS011;5747;56.748;13.882;2023-07-02T13:40:48;6.27;;;2.37;;
11384;SDS011;5747;56.748;13.882;2023-07-02T13:43:20;5.47;;;2.90;;
11384;SDS011;5747;56.748;13.882;2023-07-02T13:45:51;7.73;;;2.80;;
11384;SDS011;5747;56.748;13.882;2023-07-02T13:48:29;6.23;;;2.67;;
11384;SDS011;5747;56.748;13.882;2023-07-02T13:50:58;5.63;;;2.47;;
11384;SDS011;5747;56.748;13.882;2023-07-02T13:53:34;4.27;;;2.20;;
11384;SDS011;5747;56.748;13.882;2023-07-02T13:56:06;5.37;;;2.20;;
11384;SDS011;5747;56.748;13.882;2023-07-02T13:58:58;5.63;;;2.27;;
11384;SDS011;5747;56.748;13.882;2023-07-02T14:01:30;6.30;;;2.20;;
11384;SDS011;5747;56.748;13.882;2023-07-02T14:04:00;6.23;;;2.60;;
11384;SDS011;5747;56.748;13.882;2023-07-02T14:06:30;5.90;;;2.50;;
11384;SDS011;5747;56.748;13.882;2023-07-02T14:08:58;5.07;;;2.20;;
11384;SDS011;5747;56.748;13.882;2023-07-02T14:11:28;5.07;;;2.00;;
11384;SDS011;5747;56.748;13.882;2023-07-02T14:13:58;5.27;;;2.00;;
11384;SDS011;5747;56.748;13.882;2023-07-02T14:16:26;3.80;;;1.90;;
11384;SDS011;5747;56.748;13.882;2023-07-02T14:18:54;4.40;;;1.90;;
11384;SDS011;5747;56.748;13.882;2023-07-02T14:21:22;5.17;;;2.10;;
11384;SDS011;5747;56.748;13.882;2023-07-02T14:23:50;3.43;;;1.83;;
11384;SDS011;5747;56.748;13.882;2023-07-02T14:26:19;6.40;;;2.20;;
11384;SDS011;5747;56.748;13.882;2023-07-02T14:28:47;6.33;;;2.40;;
11384;SDS011;5747;56.748;13.882;2023-07-02T14:31:16;5.53;;;2.53;;
11384;SDS011;5747;56.748;13.882;2023-07-02T14:33:45;5.50;;;2.50;;
11384;SDS011;5747;56.748;13.882;2023-07-02T14:36:13;3.60;;;2.03;;
11384;SDS011;5747;56.748;13.882;2023-07-02T14:38:41;6.03;;;2.43;;
11384;SDS011;5747;56.748;13.882;2023-07-02T14:41:09;6.00;;;2.53;;
11384;SDS011;5747;56.748;13.882;2023-07-02T14:43:38;8.17;;;2.40;;
11384;SDS011;5747;56.748;13.882;2023-07-02T14:46:06;2.90;;;2.23;;
11384;SDS011;5747;56.748;13.882;2023-07-02T14:48:36;7.40;;;2.43;;
11384;SDS011;5747;56.748;13.882;2023-07-02T14:51:04;8.20;;;2.53;;
11384;SDS011;5747;56.748;13.882;2023-07-02T14:53:32;8.17;;;2.80;;
11384;SDS011;5747;56.748;13.882;2023-07-02T14:56:01;6.23;;;2.43;;
11384;SDS011;5747;56.748;13.882;2023-07-02T14:58:30;6.63;;;2.57;;
11384;SDS011;5747;56.748;13.882;2023-07-02T15:00:59;7.50;;;2.60;;
11384;SDS011;5747;56.748;13.882;2023-07-02T15:03:29;7.53;;;3.07;;
11384;SDS011;5747;56.748;13.882;2023-07-02T15:06:06;6.57;;;3.07;;
11384;SDS011;5747;56.748;13.882;2023-07-02T15:08:39;9.00;;;3.60;;
11384;SDS011;5747;56.748;13.882;2023-07-02T15:11:08;7.00;;;3.53;;
11384;SDS011;5747;56.748;13.882;2023-07-02T15:13:37;5.23;;;3.30;;
11384;SDS011;5747;56.748;13.882;2023-07-02T15:16:08;8.50;;;3.67;;
11384;SDS011;5747;56.748;13.882;2023-07-02T15:18:37;8.53;;;4.00;;
11384;SDS011;5747;56.748;13.882;2023-07-02T15:21:07;9.27;;;3.87;;
11384;SDS011;5747;56.748;13.882;2023-07-02T15:23:36;8.17;;;3.63;;
11384;SDS011;5747;56.748;13.882;2023-07-02T15:26:04;8.43;;;3.97;;
11384;SDS011;5747;56.748;13.882;2023-07-02T15:28:33;7.77;;;3.60;;
11384;SDS011;5747;56.748;13.882;2023-07-02T15:31:04;7.57;;;3.90;;
11384;SDS011;5747;56.748;13.882;2023-07-02T15:33:34;9.60;;;4.03;;
11384;SDS011;5747;56.748;13.882;2023-07-02T15:36:03;10.37;;;4.37;;
11384;SDS011;5747;56.748;13.882;2023-07-02T15:38:35;9.87;;;4.00;;
11384;SDS011;5747;56.748;13.882;2023-07-02T15:41:04;7.93;;;4.03;;
11384;SDS011;5747;56.748;13.882;2023-07-02T15:43:34;9.40;;;3.67;;
11384;SDS011;5747;56.748;13.882;2023-07-02T15:46:02;8.77;;;3.60;;
11384;SDS011;5747;56.748;13.882;2023-07-02T15:48:31;8.37;;;3.53;;
11384;SDS011;5747;56.748;13.882;2023-07-02T15:51:01;8.37;;;3.83;;
11384;SDS011;5747;56.748;13.882;2023-07-02T15:53:31;14.23;;;3.70;;
11384;SDS011;5747;56.748;13.882;2023-07-02T15:56:01;8.83;;;3.77;;
11384;SDS011;5747;56.748;13.882;2023-07-02T15:58:30;6.37;;;3.47;;
11384;SDS011;5747;56.748;13.882;2023-07-02T16:01:08;10.07;;;3.87;;
11384;SDS011;5747;56.748;13.882;2023-07-02T16:03:38;15.63;;;3.70;;
11384;SDS011;5747;56.748;13.882;2023-07-02T16:06:06;8.07;;;3.40;;
11384;SDS011;5747;56.748;13.882;2023-07-02T16:08:35;11.33;;;3.70;;
11384;SDS011;5747;56.748;13.882;2023-07-02T16:11:05;9.47;;;4.00;;
11384;SDS011;5747;56.748;13.882;2023-07-02T16:13:35;8.30;;;3.63;;
11384;SDS011;5747;56.748;13.882;2023-07-02T16:16:04;10.77;;;3.40;;
11384;SDS011;5747;56.748;13.882;2023-07-02T16:18:34;10.87;;;3.87;;
11384;SDS011;5747;56.748;13.882;2023-07-02T16:21:03;7.90;;;3.47;;
11384;SDS011;5747;56.748;13.882;2023-07-02T16:23:32;8.07;;;3.63;;
11384;SDS011;5747;56.748;13.882;2023-07-02T16:26:01;10.13;;;3.90;;
11384;SDS011;5747;56.748;13.882;2023-07-02T16:28:34;7.53;;;3.60;;
11384;SDS011;5747;56.748;13.882;2023-07-02T16:31:04;6.57;;;3.37;;
11384;SDS011;5747;56.748;13.882;2023-07-02T16:33:35;8.23;;;3.40;;
11384;SDS011;5747;56.748;13.882;2023-07-02T16:36:04;7.67;;;2.97;;
11384;SDS011;5747;56.748;13.882;2023-07-02T16:38:34;8.30;;;3.00;;
11384;SDS011;5747;56.748;13.882;2023-07-02T16:41:02;8.93;;;3.63;;
11384;SDS011;5747;56.748;13.882;2023-07-02T16:43:34;7.77;;;3.60;;
11384;SDS011;5747;56.748;13.882;2023-07-02T16:46:02;8.97;;;3.20;;
11384;SDS011;5747;56.748;13.882;2023-07-02T16:48:31;7.10;;;2.70;;
11384;SDS011;5747;56.748;13.882;2023-07-02T16:51:00;5.17;;;2.20;;
11384;SDS011;5747;56.748;13.882;2023-07-02T16:53:29;7.13;;;2.43;;
11384;SDS011;5747;56.748;13.882;2023-07-02T16:55:57;11.73;;;3.10;;
11384;SDS011;5747;56.748;13.882;2023-07-02T16:58:27;8.10;;;2.80;;
11384;SDS011;5747;56.748;13.882;2023-07-02T17:01:00;6.30;;;2.33;;
11384;SDS011;5747;56.748;13.882;2023-07-02T17:03:29;7.80;;;2.50;;
11384;SDS011;5747;56.748;13.882;2023-07-02T17:05:59;8.53;;;2.60;;
11384;SDS011;5747;56.748;13.882;2023-07-02T17:08:32;8.57;;;2.87;;
11384;SDS011;5747;56.748;13.882;2023-07-02T17:11:02;5.87;;;2.50;;
11384;SDS011;5747;56.748;13.882;2023-07-02T17:13:32;10.50;;;2.87;;
11384;SDS011;5747;56.748;13.882;2023-07-02T17:16:01;7.30;;;3.00;;
11384;SDS011;5747;56.748;13.882;2023-07-02T17:18:30;8.10;;;2.67;;
11384;SDS011;5747;56.748;13.882;2023-07-02T17:20:59;9.20;;;3.00;;
11384;SDS011;5747;56.748;13.882;2023-07-02T17:23:27;12.43;;;3.00;;
11384;SDS011;5747;56.748;13.882;2023-07-02T17:25:59;7.97;;;2.77;;
11384;SDS011;5747;56.748;13.882;2023-07-02T17:28:27;7.40;;;2.97;;
11384;SDS011;5747;56.748;13.882;2023-07-02T17:30:56;10.23;;;3.00;;
11384;SDS011;5747;56.748;13.882;2023-07-02T17:33:27;13.10;;;3.53;;
11384;SDS011;5747;56.748;13.882;2023-07-02T17:35:57;7.63;;;3.40;;
11384;SDS011;5747;56.748;13.882;2023-07-02T17:38:25;9.93;;;3.17;;
11384;SDS011;5747;56.748;13.882;2023-07-02T17:40:54;10.27;;;3.50;;
11384;SDS011;5747;56.748;13.882;2023-07-02T17:43:22;9.77;;;3.77;;
11384;SDS011;5747;56.748;13.882;2023-07-02T17:45:53;16.23;;;3.43;;
11384;SDS011;5747;56.748;13.882;2023-07-02T17:48:22;9.07;;;3.73;;
11384;SDS011;5747;56.748;13.882;2023-07-02T17:50:54;11.17;;;3.53;;
11384;SDS011;5747;56.748;13.882;2023-07-02T17:53:23;9.40;;;3.50;;
11384;SDS011;5747;56.748;13.882;2023-07-02T17:55:51;14.40;;;3.40;;
11384;SDS011;5747;56.748;13.882;2023-07-02T17:58:20;8.43;;;3.20;;
11384;SDS011;5747;56.748;13.882;2023-07-02T18:00:49;8.37;;;3.10;;
11384;SDS011;5747;56.748;13.882;2023-07-02T18:03:19;10.33;;;3.23;;
11384;SDS011;5747;56.748;13.882;2023-07-02T18:05:48;10.00;;;2.90;;
11384;SDS011;5747;56.748;13.882;2023-07-02T18:08:18;10.70;;;3.10;;
11384;SDS011;5747;56.748;13.882;2023-07-02T18:10:46;8.13;;;3.00;;
11384;SDS011;5747;56.748;13.882;2023-07-02T18:13:15;8.53;;;3.20;;
11384;SDS011;5747;56.748;13.882;2023-07-02T18:15:44;10.27;;;3.30;;
11384;SDS011;5747;56.748;13.882;2023-07-02T18:18:13;11.40;;;2.50;;
11384;SDS011;5747;56.748;13.882;2023-07-02T18:20:41;10.37;;;3.10;;
11384;SDS011;5747;56.748;13.882;2023-07-02T18:23:09;9.47;;;2.90;;
11384;SDS011;5747;56.748;13.882;2023-07-02T18:25:39;10.37;;;2.73;;
11384;SDS011;5747;56.748;13.882;2023-07-02T18:28:08;9.47;;;2.50;;
11384;SDS011;5747;56.748;13.882;2023-07-02T18:30:41;5.70;;;2.60;;
11384;SDS011;5747;56.748;13.882;2023-07-02T18:33:10;4.40;;;2.20;;
11384;SDS011;5747;56.748;13.882;2023-07-02T18:35:39;9.47;;;2.47;;
11384;SDS011;5747;56.748;13.882;2023-07-02T18:38:07;8.70;;;2.30;;
11384;SDS011;5747;56.748;13.882;2023-07-02T18:40:36;11.10;;;2.93;;
11384;SDS011;5747;56.748;13.882;2023-07-02T18:43:06;10.07;;;2.57;;
11384;SDS011;5747;56.748;13.882;2023-07-02T18:45:34;8.53;;;2.73;;
11384;SDS011;5747;56.748;13.882;2023-07-02T18:48:03;11.90;;;2.53;;
11384;SDS011;5747;56.748;13.882;2023-07-02T18:50:32;9.37;;;2.97;;
11384;SDS011;5747;56.748;13.882;2023-07-02T18:53:00;11.80;;;3.13;;
11384;SDS011;5747;56.748;13.882;2023-07-02T18:55:29;9.10;;;2.60;;
11384;SDS011;5747;56.748;13.882;2023-07-02T18:57:59;8.77;;;2.70;;
11384;SDS011;5747;56.748;13.882;2023-07-02T19:00:27;9.40;;;2.73;;
11384;SDS011;5747;56.748;13.882;2023-07-02T19:02:55;8.57;;;3.13;;
11384;SDS011;5747;56.748;13.882;2023-07-02T19:05:26;12.50;;;2.77;;
11384;SDS011;5747;56.748;13.882;2023-07-02T19:07:54;7.43;;;2.87;;
11384;SDS011;5747;56.748;13.882;2023-07-02T19:10:23;7.87;;;3.07;;
11384;SDS011;5747;56.748;13.882;2023-07-02T19:12:51;11.93;;;3.27;;
11384;SDS011;5747;56.748;13.882;2023-07-02T19:15:20;9.13;;;3.07;;
11384;SDS011;5747;56.748;13.882;2023-07-02T19:17:49;6.73;;;3.07;;
11384;SDS011;5747;56.748;13.882;2023-07-02T19:20:17;6.17;;;2.50;;
11384;SDS011;5747;56.748;13.882;2023-07-02T19:22:46;11.03;;;3.00;;
11384;SDS011;5747;56.748;13.882;2023-07-02T19:25:14;10.87;;;2.73;;
11384;SDS011;5747;56.748;13.882;2023-07-02T19:27:43;10.83;;;3.40;;
11384;SDS011;5747;56.748;13.882;2023-07-02T19:30:12;11.70;;;3.23;;
11384;SDS011;5747;56.748;13.882;2023-07-02T19:32:42;12.53;;;3.00;;
11384;SDS011;5747;56.748;13.882;2023-07-02T19:35:11;13.53;;;3.53;;
11384;SDS011;5747;56.748;13.882;2023-07-02T19:37:39;10.97;;;3.47;;
11384;SDS011;5747;56.748;13.882;2023-07-02T19:40:08;8.73;;;3.00;;
11384;SDS011;5747;56.748;13.882;2023-07-02T19:42:37;11.47;;;3.33;;
11384;SDS011;5747;56.748;13.882;2023-07-02T19:45:05;9.03;;;3.20;;
11384;SDS011;5747;56.748;13.882;2023-07-02T19:47:34;10.97;;;3.20;;
11384;SDS011;5747;56.748;13.882;2023-07-02T19:50:04;14.90;;;3.77;;
11384;SDS011;5747;56.748;13.882;2023-07-02T19:52:33;13.37;;;3.07;;
11384;SDS011;5747;56.748;13.882;2023-07-02T19:55:02;11.87;;;3.53;;
11384;SDS011;5747;56.748;13.882;2023-07-02T19:57:34;11.87;;;3.00;;
11384;SDS011;5747;56.748;13.882;2023-07-02T20:00:02;13.80;;;3.30;;
11384;SDS011;5747;56.748;13.882;2023-07-02T20:02:35;9.13;;;3.10;;
11384;SDS011;5747;56.748;13.882;2023-07-02T20:05:06;14.03;;;3.90;;
11384;SDS011;5747;56.748;13.882;2023-07-02T20:07:36;12.03;;;2.93;;
11384;SDS011;5747;56.748;13.882;2023-07-02T20:10:06;9.90;;;2.80;;
11384;SDS011;5747;56.748;13.882;2023-07-02T20:12:35;9.27;;;2.97;;
11384;SDS011;5747;56.748;13.882;2023-07-02T20:15:04;9.73;;;2.87;;
11384;SDS011;5747;56.748;13.882;2023-07-02T20:17:34;11.80;;;3.33;;
11384;SDS011;5747;56.748;13.882;2023-07-02T20:20:03;16.07;;;3.20;;
11384;SDS011;5747;56.748;13.882;2023-07-02T20:22:35;12.77;;;3.70;;
11384;SDS011;5747;56.748;13.882;2023-07-02T20:25:03;14.20;;;3.33;;
11384;SDS011;5747;56.748;13.882;2023-07-02T20:27:52;9.43;;;3.10;;
11384;SDS011;5747;56.748;13.882;2023-07-02T20:30:20;11.20;;;3.67;;
11384;SDS011;5747;56.748;13.882;2023-07-02T20:32:48;11.03;;;3.30;;
11384;SDS011;5747;56.748;13.882;2023-07-02T20:35:18;12.27;;;3.63;;
11384;SDS011;5747;56.748;13.882;2023-07-02T20:37:46;12.03;;;3.80;;
11384;SDS011;5747;56.748;13.882;2023-07-02T20:40:18;9.03;;;3.63;;
11384;SDS011;5747;56.748;13.882;2023-07-02T20:42:47;9.03;;;3.57;;
11384;SDS011;5747;56.748;13.882;2023-07-02T20:45:15;13.97;;;3.77;;
11384;SDS011;5747;56.748;13.882;2023-07-02T20:47:43;11.23;;;3.43;;
11384;SDS011;5747;56.748;13.882;2023-07-02T20:50:12;14.37;;;3.60;;
11384;SDS011;5747;56.748;13.882;2023-07-02T20:52:43;8.37;;;3.17;;
11384;SDS011;5747;56.748;13.882;2023-07-02T20:55:12;8.00;;;3.23;;
11384;SDS011;5747;56.748;13.882;2023-07-02T20:57:40;7.93;;;3.23;;
11384;SDS011;5747;56.748;13.882;2023-07-02T21:00:08;12.70;;;3.77;;
11384;SDS011;5747;56.748;13.882;2023-07-02T21:02:38;7.63;;;3.50;;
11384;SDS011;5747;56.748;13.882;2023-07-02T21:05:07;13.77;;;3.97;;
11384;SDS011;5747;56.748;13.882;2023-07-02T21:07:36;12.37;;;4.00;;
11384;SDS011;5747;56.748;13.882;2023-07-02T21:10:06;11.80;;;3.03;;
11384;SDS011;5747;56.748;13.882;2023-07-02T21:12:35;8.20;;;3.50;;
11384;SDS011;5747;56.748;13.882;2023-07-02T21:15:03;10.00;;;3.67;;
11384;SDS011;5747;56.748;13.882;2023-07-02T21:17:32;10.43;;;3.57;;
11384;SDS011;5747;56.748;13.882;2023-07-02T21:20:00;6.50;;;3.50;;
11384;SDS011;5747;56.748;13.882;2023-07-02T21:22:30;9.07;;;3.40;;
11384;SDS011;5747;56.748;13.882;2023-07-02T21:24:59;13.43;;;3.37;;
11384;SDS011;5747;56.748;13.882;2023-07-02T21:27:28;10.60;;;3.03;;
11384;SDS011;5747;56.748;13.882;2023-07-02T21:29:56;10.90;;;3.13;;
11384;SDS011;5747;56.748;13.882;2023-07-02T21:32:24;9.60;;;3.23;;
11384;SDS011;5747;56.748;13.882;2023-07-02T21:34:53;9.27;;;2.83;;
11384;SDS011;5747;56.748;13.882;2023-07-02T21:37:21;14.17;;;3.13;;
11384;SDS011;5747;56.748;13.882;2023-07-02T21:39:49;8.90;;;3.00;;
11384;SDS011;5747;56.748;13.882;2023-07-02T21:42:17;8.17;;;3.60;;
11384;SDS011;5747;56.748;13.882;2023-07-02T21:44:47;9.90;;;3.17;;
11384;SDS011;5747;56.748;13.882;2023-07-02T21:47:15;12.53;;;3.03;;
11384;SDS011;5747;56.748;13.882;2023-07-02T21:49:43;10.17;;;3.03;;
11384;SDS011;5747;56.748;13.882;2023-07-02T21:52:11;11.90;;;3.00;;
11384;SDS011;5747;56.748;13.882;2023-07-02T21:54:39;10.30;;;3.47;;
11384;SDS011;5747;56.748;13.882;2023-07-02T21:57:07;12.00;;;3.17;;
11384;SDS011;5747;56.748;13.882;2023-07-02T21:59:36;10.27;;;2.93;;
11384;SDS011;5747;56.748;13.882;2023-07-02T22:02:05;11.50;;;3.30;;
11384;SDS011;5747;56.748;13.882;2023-07-02T22:04:33;9.13;;;3.70;;
11384;SDS011;5747;56.748;13.882;2023-07-02T22:07:02;13.00;;;3.70;;
11384;SDS011;5747;56.748;13.882;2023-07-02T22:09:30;10.07;;;3.57;;
11384;SDS011;5747;56.748;13.882;2023-07-02T22:11:59;8.13;;;3.33;;
11384;SDS011;5747;56.748;13.882;2023-07-02T22:14:27;13.10;;;3.33;;
11384;SDS011;5747;56.748;13.882;2023-07-02T22:16:55;14.13;;;3.07;;
11384;SDS011;5747;56.748;13.882;2023-07-02T22:19:25;10.07;;;3.40;;
11384;SDS011;5747;56.748;13.882;2023-07-02T22:21:58;13.37;;;3.50;;
11384;SDS011;5747;56.748;13.882;2023-07-02T22:24:27;11.07;;;3.03;;
11384;SDS011;5747;56.748;13.882;2023-07-02T22:26:56;11.57;;;3.37;;
11384;SDS011;5747;56.748;13.882;2023-07-02T22:29:24;8.87;;;2.80;;
11384;SDS011;5747;56.748;13.882;2023-07-02T22:31:52;10.47;;;3.13;;
11384;SDS011;5747;56.748;13.882;2023-07-02T22:34:21;9.30;;;3.10;;
11384;SDS011;5747;56.748;13.882;2023-07-02T22:36:50;14.23;;;2.77;;
11384;SDS011;5747;56.748;13.882;2023-07-02T22:39:19;9.80;;;3.03;;
11384;SDS011;5747;56.748;13.882;2023-07-02T22:41:47;9.37;;;2.70;;
11384;SDS011;5747;56.748;13.882;2023-07-02T22:44:15;11.93;;;3.30;;
11384;SDS011;5747;56.748;13.882;2023-07-02T22:46:44;9.73;;;2.63;;
11384;SDS011;5747;56.748;13.882;2023-07-02T22:49:12;7.57;;;2.93;;
11384;SDS011;5747;56.748;13.882;2023-07-02T22:51:40;10.97;;;2.63;;
11384;SDS011;5747;56.748;13.882;2023-07-02T22:54:09;8.93;;;2.73;;
11384;SDS011;5747;56.748;13.882;2023-07-02T22:56:38;9.17;;;2.87;;
11384;SDS011;5747;56.748;13.882;2023-07-02T22:59:06;11.90;;;3.37;;
11384;SDS011;5747;56.748;13.882;2023-07-02T23:01:34;7.37;;;2.70;;
11384;SDS011;5747;56.748;13.882;2023-07-02T23:04:02;19.47;;;3.50;;
11384;SDS011;5747;56.748;13.882;2023-07-02T23:06:31;8.97;;;3.00;;
11384;SDS011;5747;56.748;13.882;2023-07-02T23:08:59;7.00;;;2.20;;
11384;SDS011;5747;56.748;13.882;2023-07-02T23:11:28;10.30;;;2.50;;
11384;SDS011;5747;56.748;13.882;2023-07-02T23:13:57;7.13;;;2.40;;
11384;SDS011;5747;56.748;13.882;2023-07-02T23:16:25;9.90;;;3.00;;
11384;SDS011;5747;56.748;13.882;2023-07-02T23:18:53;13.33;;;2.47;;
11384;SDS011;5747;56.748;13.882;2023-07-02T23:21:21;10.07;;;2.40;;
11384;SDS011;5747;56.748;13.882;2023-07-02T23:23:50;6.03;;;2.30;;
11384;SDS011;5747;56.748;13.882;2023-07-02T23:26:18;8.47;;;2.47;;
11384;SDS011;5747;56.748;13.882;2023-07-02T23:28:47;7.50;;;2.70;;
11384;SDS011;5747;56.748;13.882;2023-07-02T23:31:19;8.77;;;2.50;;
11384;SDS011;5747;56.748;13.882;2023-07-02T23:33:48;8.37;;;2.47;;